sensor_id;sensor_type;location;lat;lon;timestamp;temperature;humidity
7700;DHT22;3892;47.794;19.126;2022-09-09T00:00:55;25.60;56.60
7700;DHT22;3892;47.794;19.126;2022-09-09T00:03:27;25.60;55.90
7700;DHT22;3892;47.794;19.126;2022-09-09T00:06:04;25.60;55.60
7700;DHT22;3892;47.794;19.126;2022-09-09T00:08:43;25.60;55.40
7700;DHT22;3892;47.794;19.126;2022-09-09T00:11:17;25.50;55.90
7700;DHT22;3892;47.794;19.126;2022-09-09T00:13:49;25.50;55.80
7700;DHT22;3892;47.794;19.126;2022-09-09T00:16:21;25.50;55.70
7700;DHT22;3892;47.794;19.126;2022-09-09T00:18:56;25.40;55.40
7700;DHT22;3892;47.794;19.126;2022-09-09T00:21:30;25.40;55.20
7700;DHT22;3892;47.794;19.126;2022-09-09T00:24:04;25.40;55.00
7700;DHT22;3892;47.794;19.126;2022-09-09T00:26:39;25.40;54.90
7700;DHT22;3892;47.794;19.126;2022-09-09T00:29:14;25.40;54.90
7700;DHT22;3892;47.794;19.126;2022-09-09T00:31:44;25.40;55.00
7700;DHT22;3892;47.794;19.126;2022-09-09T00:34:14;25.40;55.00
7700;DHT22;3892;47.794;19.126;2022-09-09T00:36:43;25.40;54.80
7700;DHT22;3892;47.794;19.126;2022-09-09T00:39:30;25.40;54.50
7700;DHT22;3892;47.794;19.126;2022-09-09T00:42:07;25.40;54.70
7700;DHT22;3892;47.794;19.126;2022-09-09T00:44:38;25.40;54.80
7700;DHT22;3892;47.794;19.126;2022-09-09T00:47:23;25.30;54.40
7700;DHT22;3892;47.794;19.126;2022-09-09T00:49:59;25.40;54.60
7700;DHT22;3892;47.794;19.126;2022-09-09T00:52:35;25.40;54.40
7700;DHT22;3892;47.794;19.126;2022-09-09T00:55:09;25.40;54.70
7700;DHT22;3892;47.794;19.126;2022-09-09T00:57:40;25.30;54.70
7700;DHT22;3892;47.794;19.126;2022-09-09T01:00:20;25.30;55.00
7700;DHT22;3892;47.794;19.126;2022-09-09T01:02:57;25.40;55.20
7700;DHT22;3892;47.794;19.126;2022-09-09T01:05:33;25.30;55.30
7700;DHT22;3892;47.794;19.126;2022-09-09T01:08:03;25.30;55.10
7700;DHT22;3892;47.794;19.126;2022-09-09T01:10:39;25.30;54.90
7700;DHT22;3892;47.794;19.126;2022-09-09T01:13:13;25.30;54.70
7700;DHT22;3892;47.794;19.126;2022-09-09T01:15:43;25.30;54.60
7700;DHT22;3892;47.794;19.126;2022-09-09T01:18:15;25.30;54.40
7700;DHT22;3892;47.794;19.126;2022-09-09T01:20:49;25.30;54.30
7700;DHT22;3892;47.794;19.126;2022-09-09T01:23:58;25.30;54.60
7700;DHT22;3892;47.794;19.126;2022-09-09T01:26:32;25.30;54.80
7700;DHT22;3892;47.794;19.126;2022-09-09T01:29:07;25.30;54.70
7700;DHT22;3892;47.794;19.126;2022-09-09T01:31:39;25.30;55.40
7700;DHT22;3892;47.794;19.126;2022-09-09T01:34:10;25.30;55.20
7700;DHT22;3892;47.794;19.126;2022-09-09T01:36:42;25.30;56.70
7700;DHT22;3892;47.794;19.126;2022-09-09T01:39:11;25.30;56.30
7700;DHT22;3892;47.794;19.126;2022-09-09T01:41:40;25.30;57.20
7700;DHT22;3892;47.794;19.126;2022-09-09T01:44:11;25.30;58.80
7700;DHT22;3892;47.794;19.126;2022-09-09T01:46:41;25.30;58.20
7700;DHT22;3892;47.794;19.126;2022-09-09T01:49:15;25.20;57.80
7700;DHT22;3892;47.794;19.126;2022-09-09T01:51:43;25.20;57.60
7700;DHT22;3892;47.794;19.126;2022-09-09T01:54:13;25.20;57.50
7700;DHT22;3892;47.794;19.126;2022-09-09T01:56:49;25.10;57.30
7700;DHT22;3892;47.794;19.126;2022-09-09T01:59:36;25.10;56.90
7700;DHT22;3892;47.794;19.126;2022-09-09T02:02:11;25.10;56.70
7700;DHT22;3892;47.794;19.126;2022-09-09T02:04:49;25.10;56.90
7700;DHT22;3892;47.794;19.126;2022-09-09T02:07:34;25.00;56.60
7700;DHT22;3892;47.794;19.126;2022-09-09T02:10:11;25.10;56.70
7700;DHT22;3892;47.794;19.126;2022-09-09T02:12:53;25.00;56.60
7700;DHT22;3892;47.794;19.126;2022-09-09T02:15:24;25.00;57.20
7700;DHT22;3892;47.794;19.126;2022-09-09T02:17:52;25.00;56.50
7700;DHT22;3892;47.794;19.126;2022-09-09T02:20:20;25.00;56.70
7700;DHT22;3892;47.794;19.126;2022-09-09T02:22:53;25.00;56.60
7700;DHT22;3892;47.794;19.126;2022-09-09T02:25:25;24.90;56.70
7700;DHT22;3892;47.794;19.126;2022-09-09T02:27:57;25.00;51.90
7700;DHT22;3892;47.794;19.126;2022-09-09T02:30:27;24.90;51.20
7700;DHT22;3892;47.794;19.126;2022-09-09T02:32:58;25.00;56.90
7700;DHT22;3892;47.794;19.126;2022-09-09T02:35:40;25.00;57.40
7700;DHT22;3892;47.794;19.126;2022-09-09T02:38:11;25.00;51.90
7700;DHT22;3892;47.794;19.126;2022-09-09T02:40:42;25.00;52.80
7700;DHT22;3892;47.794;19.126;2022-09-09T02:43:10;24.90;52.40
7700;DHT22;3892;47.794;19.126;2022-09-09T02:45:42;25.00;52.30
7700;DHT22;3892;47.794;19.126;2022-09-09T02:48:17;24.90;53.90
7700;DHT22;3892;47.794;19.126;2022-09-09T02:50:54;24.90;54.00
7700;DHT22;3892;47.794;19.126;2022-09-09T02:53:35;24.90;55.10
7700;DHT22;3892;47.794;19.126;2022-09-09T02:56:08;24.90;53.60
7700;DHT22;3892;47.794;19.126;2022-09-09T02:58:41;24.90;53.20
7700;DHT22;3892;47.794;19.126;2022-09-09T03:01:08;24.90;52.80
7700;DHT22;3892;47.794;19.126;2022-09-09T03:03:35;24.90;55.30
7700;DHT22;3892;47.794;19.126;2022-09-09T03:06:07;24.90;53.70
7700;DHT22;3892;47.794;19.126;2022-09-09T03:08:35;24.80;52.50
7700;DHT22;3892;47.794;19.126;2022-09-09T03:11:02;24.90;53.00
7700;DHT22;3892;47.794;19.126;2022-09-09T03:13:32;24.80;53.30
7700;DHT22;3892;47.794;19.126;2022-09-09T03:16:01;24.80;53.30
7700;DHT22;3892;47.794;19.126;2022-09-09T03:18:33;24.80;52.90
7700;DHT22;3892;47.794;19.126;2022-09-09T03:21:00;24.80;52.90
7700;DHT22;3892;47.794;19.126;2022-09-09T03:23:29;24.80;53.20
7700;DHT22;3892;47.794;19.126;2022-09-09T03:25:59;24.80;52.60
7700;DHT22;3892;47.794;19.126;2022-09-09T03:28:35;24.80;53.00
7700;DHT22;3892;47.794;19.126;2022-09-09T03:31:05;24.80;52.60
7700;DHT22;3892;47.794;19.126;2022-09-09T03:33:39;24.80;52.70
7700;DHT22;3892;47.794;19.126;2022-09-09T03:36:07;24.70;53.40
7700;DHT22;3892;47.794;19.126;2022-09-09T03:38:35;24.70;53.50
7700;DHT22;3892;47.794;19.126;2022-09-09T03:41:02;24.70;53.30
7700;DHT22;3892;47.794;19.126;2022-09-09T03:43:29;24.70;54.50
7700;DHT22;3892;47.794;19.126;2022-09-09T03:45:57;24.70;54.50
7700;DHT22;3892;47.794;19.126;2022-09-09T03:48:27;24.60;53.80
7700;DHT22;3892;47.794;19.126;2022-09-09T03:50:55;24.60;54.00
7700;DHT22;3892;47.794;19.126;2022-09-09T03:53:24;24.60;53.60
7700;DHT22;3892;47.794;19.126;2022-09-09T03:55:54;24.60;54.20
7700;DHT22;3892;47.794;19.126;2022-09-09T03:58:23;24.60;53.70
7700;DHT22;3892;47.794;19.126;2022-09-09T04:00:54;24.50;53.80
7700;DHT22;3892;47.794;19.126;2022-09-09T04:03:22;24.50;53.90
7700;DHT22;3892;47.794;19.126;2022-09-09T04:05:51;24.50;54.80
7700;DHT22;3892;47.794;19.126;2022-09-09T04:08:20;24.50;53.70
7700;DHT22;3892;47.794;19.126;2022-09-09T04:10:49;24.50;53.70
7700;DHT22;3892;47.794;19.126;2022-09-09T04:13:18;24.50;53.60
7700;DHT22;3892;47.794;19.126;2022-09-09T04:15:51;24.50;53.40
7700;DHT22;3892;47.794;19.126;2022-09-09T04:18:18;24.50;53.30
7700;DHT22;3892;47.794;19.126;2022-09-09T04:20:47;24.50;53.20
7700;DHT22;3892;47.794;19.126;2022-09-09T04:23:17;24.50;52.60
7700;DHT22;3892;47.794;19.126;2022-09-09T04:25:45;24.50;53.00
7700;DHT22;3892;47.794;19.126;2022-09-09T04:28:13;24.40;53.00
7700;DHT22;3892;47.794;19.126;2022-09-09T04:30:40;24.40;53.40
7700;DHT22;3892;47.794;19.126;2022-09-09T04:33:08;24.40;53.60
7700;DHT22;3892;47.794;19.126;2022-09-09T04:35:36;24.40;54.60
7700;DHT22;3892;47.794;19.126;2022-09-09T04:38:03;24.40;54.90
7700;DHT22;3892;47.794;19.126;2022-09-09T04:40:33;24.40;53.90
7700;DHT22;3892;47.794;19.126;2022-09-09T04:43:01;24.40;54.30
7700;DHT22;3892;47.794;19.126;2022-09-09T04:45:30;24.40;53.90
7700;DHT22;3892;47.794;19.126;2022-09-09T04:47:58;24.40;54.50
7700;DHT22;3892;47.794;19.126;2022-09-09T04:50:25;24.40;53.80
7700;DHT22;3892;47.794;19.126;2022-09-09T04:53:00;24.40;53.90
7700;DHT22;3892;47.794;19.126;2022-09-09T04:55:27;24.40;54.40
7700;DHT22;3892;47.794;19.126;2022-09-09T04:57:55;24.40;54.60
7700;DHT22;3892;47.794;19.126;2022-09-09T05:00:23;24.40;53.90
7700;DHT22;3892;47.794;19.126;2022-09-09T05:02:51;24.50;54.10
7700;DHT22;3892;47.794;19.126;2022-09-09T05:05:18;24.50;54.10
7700;DHT22;3892;47.794;19.126;2022-09-09T05:07:46;24.50;54.30
7700;DHT22;3892;47.794;19.126;2022-09-09T05:10:15;24.50;54.10
7700;DHT22;3892;47.794;19.126;2022-09-09T05:12:52;24.50;54.00
7700;DHT22;3892;47.794;19.126;2022-09-09T05:15:23;24.50;54.80
7700;DHT22;3892;47.794;19.126;2022-09-09T05:17:50;24.50;54.60
7700;DHT22;3892;47.794;19.126;2022-09-09T05:20:19;24.60;54.60
7700;DHT22;3892;47.794;19.126;2022-09-09T05:22:47;24.60;54.60
7700;DHT22;3892;47.794;19.126;2022-09-09T05:25:14;24.60;54.20
7700;DHT22;3892;47.794;19.126;2022-09-09T05:27:42;24.60;54.60
7700;DHT22;3892;47.794;19.126;2022-09-09T05:30:09;24.60;54.60
7700;DHT22;3892;47.794;19.126;2022-09-09T05:32:38;24.60;54.50
7700;DHT22;3892;47.794;19.126;2022-09-09T05:35:06;24.60;54.30
7700;DHT22;3892;47.794;19.126;2022-09-09T05:37:33;24.60;53.90
7700;DHT22;3892;47.794;19.126;2022-09-09T05:40:01;24.60;53.70
7700;DHT22;3892;47.794;19.126;2022-09-09T05:42:30;24.60;53.30
7700;DHT22;3892;47.794;19.126;2022-09-09T05:44:57;24.60;53.40
7700;DHT22;3892;47.794;19.126;2022-09-09T05:47:25;24.70;53.60
7700;DHT22;3892;47.794;19.126;2022-09-09T05:49:55;24.70;53.40
7700;DHT22;3892;47.794;19.126;2022-09-09T05:52:22;24.70;53.50
7700;DHT22;3892;47.794;19.126;2022-09-09T05:54:51;24.70;53.30
7700;DHT22;3892;47.794;19.126;2022-09-09T05:57:19;24.70;53.30
7700;DHT22;3892;47.794;19.126;2022-09-09T05:59:46;24.80;54.00
7700;DHT22;3892;47.794;19.126;2022-09-09T06:02:13;24.80;54.70
7700;DHT22;3892;47.794;19.126;2022-09-09T06:04:40;24.80;53.70
7700;DHT22;3892;47.794;19.126;2022-09-09T06:07:09;24.80;53.40
7700;DHT22;3892;47.794;19.126;2022-09-09T06:09:35;24.90;53.80
7700;DHT22;3892;47.794;19.126;2022-09-09T06:12:04;24.90;53.50
7700;DHT22;3892;47.794;19.126;2022-09-09T06:14:34;25.00;54.00
7700;DHT22;3892;47.794;19.126;2022-09-09T06:17:02;25.00;53.40
7700;DHT22;3892;47.794;19.126;2022-09-09T06:19:30;25.00;53.70
7700;DHT22;3892;47.794;19.126;2022-09-09T06:21:58;25.10;53.60
7700;DHT22;3892;47.794;19.126;2022-09-09T06:24:28;25.10;53.50
7700;DHT22;3892;47.794;19.126;2022-09-09T06:26:56;25.10;53.50
7700;DHT22;3892;47.794;19.126;2022-09-09T06:29:27;25.10;53.80
7700;DHT22;3892;47.794;19.126;2022-09-09T06:31:54;25.10;53.40
7700;DHT22;3892;47.794;19.126;2022-09-09T06:34:23;25.20;54.00
7700;DHT22;3892;47.794;19.126;2022-09-09T06:36:54;25.10;53.20
7700;DHT22;3892;47.794;19.126;2022-09-09T06:39:23;25.20;53.30
7700;DHT22;3892;47.794;19.126;2022-09-09T06:41:53;25.10;53.80
7700;DHT22;3892;47.794;19.126;2022-09-09T06:44:38;25.10;53.50
7700;DHT22;3892;47.794;19.126;2022-09-09T06:47:08;25.20;53.50
7700;DHT22;3892;47.794;19.126;2022-09-09T06:49:37;25.20;53.20
7700;DHT22;3892;47.794;19.126;2022-09-09T06:52:08;25.30;53.90
7700;DHT22;3892;47.794;19.126;2022-09-09T06:54:35;25.30;54.00
7700;DHT22;3892;47.794;19.126;2022-09-09T06:57:05;25.30;53.40
7700;DHT22;3892;47.794;19.126;2022-09-09T06:59:34;25.30;53.20
7700;DHT22;3892;47.794;19.126;2022-09-09T07:02:01;25.40;53.80
7700;DHT22;3892;47.794;19.126;2022-09-09T07:04:28;25.40;53.70
7700;DHT22;3892;47.794;19.126;2022-09-09T07:06:55;25.40;53.00
7700;DHT22;3892;47.794;19.126;2022-09-09T07:09:24;25.50;53.30
7700;DHT22;3892;47.794;19.126;2022-09-09T07:11:53;25.40;52.90
7700;DHT22;3892;47.794;19.126;2022-09-09T07:14:24;25.50;53.00
7700;DHT22;3892;47.794;19.126;2022-09-09T07:16:55;25.50;53.30
7700;DHT22;3892;47.794;19.126;2022-09-09T07:19:23;25.50;53.20
7700;DHT22;3892;47.794;19.126;2022-09-09T07:21:52;25.60;53.70
7700;DHT22;3892;47.794;19.126;2022-09-09T07:24:22;25.60;53.10
7700;DHT22;3892;47.794;19.126;2022-09-09T07:26:49;25.60;53.20
7700;DHT22;3892;47.794;19.126;2022-09-09T07:29:18;25.50;53.20
7700;DHT22;3892;47.794;19.126;2022-09-09T07:31:46;25.60;53.10
7700;DHT22;3892;47.794;19.126;2022-09-09T07:34:18;25.60;53.50
7700;DHT22;3892;47.794;19.126;2022-09-09T07:36:45;25.60;53.60
7700;DHT22;3892;47.794;19.126;2022-09-09T07:39:14;25.60;53.60
7700;DHT22;3892;47.794;19.126;2022-09-09T07:41:48;25.70;53.70
7700;DHT22;3892;47.794;19.126;2022-09-09T07:44:21;25.70;53.30
7700;DHT22;3892;47.794;19.126;2022-09-09T07:46:52;25.60;52.70
7700;DHT22;3892;47.794;19.126;2022-09-09T07:49:25;25.70;53.00
7700;DHT22;3892;47.794;19.126;2022-09-09T07:51:52;25.70;52.90
7700;DHT22;3892;47.794;19.126;2022-09-09T07:54:20;25.70;52.70
7700;DHT22;3892;47.794;19.126;2022-09-09T07:56:50;25.70;52.70
7700;DHT22;3892;47.794;19.126;2022-09-09T07:59:18;25.70;52.20
7700;DHT22;3892;47.794;19.126;2022-09-09T08:01:49;25.70;52.40
7700;DHT22;3892;47.794;19.126;2022-09-09T08:04:25;25.70;51.90
7700;DHT22;3892;47.794;19.126;2022-09-09T08:06:56;25.80;52.40
7700;DHT22;3892;47.794;19.126;2022-09-09T08:09:25;25.80;52.60
7700;DHT22;3892;47.794;19.126;2022-09-09T08:11:58;25.90;52.80
7700;DHT22;3892;47.794;19.126;2022-09-09T08:14:25;25.90;52.20
7700;DHT22;3892;47.794;19.126;2022-09-09T08:16:52;25.90;52.30
7700;DHT22;3892;47.794;19.126;2022-09-09T08:19:23;26.00;52.40
7700;DHT22;3892;47.794;19.126;2022-09-09T08:21:51;25.90;52.10
7700;DHT22;3892;47.794;19.126;2022-09-09T08:24:18;26.00;51.60
7700;DHT22;3892;47.794;19.126;2022-09-09T08:26:48;26.00;52.00
7700;DHT22;3892;47.794;19.126;2022-09-09T08:29:18;26.10;52.10
7700;DHT22;3892;47.794;19.126;2022-09-09T08:31:48;26.10;52.10
7700;DHT22;3892;47.794;19.126;2022-09-09T08:34:16;26.20;51.90
7700;DHT22;3892;47.794;19.126;2022-09-09T08:36:45;26.20;51.90
7700;DHT22;3892;47.794;19.126;2022-09-09T08:39:14;26.20;51.70
7700;DHT22;3892;47.794;19.126;2022-09-09T08:42:06;26.30;52.30
7700;DHT22;3892;47.794;19.126;2022-09-09T08:44:49;26.30;51.50
7700;DHT22;3892;47.794;19.126;2022-09-09T08:47:24;26.40;51.90
7700;DHT22;3892;47.794;19.126;2022-09-09T08:50:05;26.40;52.10
7700;DHT22;3892;47.794;19.126;2022-09-09T08:52:48;26.50;51.10
7700;DHT22;3892;47.794;19.126;2022-09-09T08:55:25;26.50;51.30
7700;DHT22;3892;47.794;19.126;2022-09-09T08:57:55;26.60;51.70
7700;DHT22;3892;47.794;19.126;2022-09-09T09:00:32;26.60;50.50
7700;DHT22;3892;47.794;19.126;2022-09-09T09:03:08;26.60;50.10
7700;DHT22;3892;47.794;19.126;2022-09-09T09:05:42;26.70;50.20
7700;DHT22;3892;47.794;19.126;2022-09-09T09:08:20;26.80;49.80
7700;DHT22;3892;47.794;19.126;2022-09-09T09:10:54;26.80;50.00
7700;DHT22;3892;47.794;19.126;2022-09-09T09:13:30;26.90;49.90
7700;DHT22;3892;47.794;19.126;2022-09-09T09:16:07;26.90;50.10
7700;DHT22;3892;47.794;19.126;2022-09-09T09:18:38;27.00;50.30
7700;DHT22;3892;47.794;19.126;2022-09-09T09:21:11;27.10;49.80
7700;DHT22;3892;47.794;19.126;2022-09-09T09:23:47;27.10;50.00
7700;DHT22;3892;47.794;19.126;2022-09-09T09:26:17;27.20;50.30
7700;DHT22;3892;47.794;19.126;2022-09-09T09:28:44;27.40;50.20
7700;DHT22;3892;47.794;19.126;2022-09-09T09:31:15;27.50;50.20
7700;DHT22;3892;47.794;19.126;2022-09-09T09:33:48;27.60;49.60
7700;DHT22;3892;47.794;19.126;2022-09-09T09:36:17;27.60;48.90
7700;DHT22;3892;47.794;19.126;2022-09-09T09:38:56;27.60;49.00
7700;DHT22;3892;47.794;19.126;2022-09-09T09:41:35;27.70;48.80
7700;DHT22;3892;47.794;19.126;2022-09-09T09:44:05;27.80;48.90
7700;DHT22;3892;47.794;19.126;2022-09-09T09:46:33;27.90;48.20
7700;DHT22;3892;47.794;19.126;2022-09-09T09:49:09;28.00;48.70
7700;DHT22;3892;47.794;19.126;2022-09-09T09:51:37;28.10;48.70
7700;DHT22;3892;47.794;19.126;2022-09-09T09:54:14;28.30;48.60
7700;DHT22;3892;47.794;19.126;2022-09-09T09:56:46;28.40;48.90
7700;DHT22;3892;47.794;19.126;2022-09-09T09:59:22;28.50;47.90
7700;DHT22;3892;47.794;19.126;2022-09-09T10:01:50;28.50;47.30
7700;DHT22;3892;47.794;19.126;2022-09-09T10:04:21;28.60;47.60
7700;DHT22;3892;47.794;19.126;2022-09-09T10:06:53;28.70;47.90
7700;DHT22;3892;47.794;19.126;2022-09-09T10:09:26;28.90;47.20
7700;DHT22;3892;47.794;19.126;2022-09-09T10:11:58;29.00;47.50
7700;DHT22;3892;47.794;19.126;2022-09-09T10:14:34;29.10;46.70
7700;DHT22;3892;47.794;19.126;2022-09-09T10:17:12;29.10;46.40
7700;DHT22;3892;47.794;19.126;2022-09-09T10:19:49;29.20;47.10
7700;DHT22;3892;47.794;19.126;2022-09-09T10:22:26;29.40;46.80
7700;DHT22;3892;47.794;19.126;2022-09-09T10:27:54;29.70;47.20
7700;DHT22;3892;47.794;19.126;2022-09-09T10:30:30;29.90;47.10
7700;DHT22;3892;47.794;19.126;2022-09-09T10:33:07;30.10;46.60
7700;DHT22;3892;47.794;19.126;2022-09-09T10:35:39;30.40;45.50
7700;DHT22;3892;47.794;19.126;2022-09-09T10:38:16;30.40;45.10
7700;DHT22;3892;47.794;19.126;2022-09-09T10:41:03;30.60;44.70
7700;DHT22;3892;47.794;19.126;2022-09-09T10:43:58;30.60;44.70
7700;DHT22;3892;47.794;19.126;2022-09-09T10:46:37;30.60;44.70
7700;DHT22;3892;47.794;19.126;2022-09-09T10:49:16;30.70;44.10
7700;DHT22;3892;47.794;19.126;2022-09-09T10:51:51;30.70;44.70
7700;DHT22;3892;47.794;19.126;2022-09-09T10:54:29;30.80;44.50
7700;DHT22;3892;47.794;19.126;2022-09-09T10:57:03;30.90;43.80
7700;DHT22;3892;47.794;19.126;2022-09-09T10:59:36;31.10;44.50
7700;DHT22;3892;47.794;19.126;2022-09-09T11:02:11;31.10;43.10
7700;DHT22;3892;47.794;19.126;2022-09-09T11:04:42;31.20;43.30
7700;DHT22;3892;47.794;19.126;2022-09-09T11:07:13;31.10;43.60
7700;DHT22;3892;47.794;19.126;2022-09-09T11:09:45;31.30;43.00
7700;DHT22;3892;47.794;19.126;2022-09-09T11:12:19;31.30;42.90
7700;DHT22;3892;47.794;19.126;2022-09-09T11:14:48;31.30;42.80
7700;DHT22;3892;47.794;19.126;2022-09-09T11:17:21;31.30;42.90
7700;DHT22;3892;47.794;19.126;2022-09-09T11:19:50;31.40;43.00
7700;DHT22;3892;47.794;19.126;2022-09-09T11:22:24;31.30;41.80
7700;DHT22;3892;47.794;19.126;2022-09-09T11:24:57;31.20;42.90
7700;DHT22;3892;47.794;19.126;2022-09-09T11:27:31;31.20;43.20
7700;DHT22;3892;47.794;19.126;2022-09-09T11:30:12;31.20;42.40
7700;DHT22;3892;47.794;19.126;2022-09-09T11:33:09;31.20;42.50
7700;DHT22;3892;47.794;19.126;2022-09-09T11:35:47;31.30;41.70
7700;DHT22;3892;47.794;19.126;2022-09-09T11:38:26;31.50;41.10
7700;DHT22;3892;47.794;19.126;2022-09-09T11:40:58;31.70;41.00
7700;DHT22;3892;47.794;19.126;2022-09-09T11:43:30;31.80;40.40
7700;DHT22;3892;47.794;19.126;2022-09-09T11:46:01;32.00;39.60
7700;DHT22;3892;47.794;19.126;2022-09-09T11:48:33;32.10;39.50
7700;DHT22;3892;47.794;19.126;2022-09-09T11:51:04;32.30;40.00
7700;DHT22;3892;47.794;19.126;2022-09-09T11:53:33;32.40;39.00
7700;DHT22;3892;47.794;19.126;2022-09-09T11:56:03;32.50;39.60
7700;DHT22;3892;47.794;19.126;2022-09-09T11:58:38;32.60;38.90
7700;DHT22;3892;47.794;19.126;2022-09-09T12:01:29;32.70;38.90
7700;DHT22;3892;47.794;19.126;2022-09-09T12:04:15;32.90;39.40
7700;DHT22;3892;47.794;19.126;2022-09-09T12:06:45;33.00;38.80
7700;DHT22;3892;47.794;19.126;2022-09-09T12:09:19;33.00;38.60
7700;DHT22;3892;47.794;19.126;2022-09-09T12:11:48;33.00;37.70
7700;DHT22;3892;47.794;19.126;2022-09-09T12:14:35;33.00;38.10
7700;DHT22;3892;47.794;19.126;2022-09-09T12:17:18;33.00;37.60
7700;DHT22;3892;47.794;19.126;2022-09-09T12:19:46;32.90;36.70
7700;DHT22;3892;47.794;19.126;2022-09-09T12:22:20;32.70;36.70
7700;DHT22;3892;47.794;19.126;2022-09-09T12:24:56;32.60;36.80
7700;DHT22;3892;47.794;19.126;2022-09-09T12:27:30;32.60;37.30
7700;DHT22;3892;47.794;19.126;2022-09-09T12:30:03;32.50;37.70
7700;DHT22;3892;47.794;19.126;2022-09-09T12:32:30;32.50;37.40
7700;DHT22;3892;47.794;19.126;2022-09-09T12:35:00;32.40;37.50
7700;DHT22;3892;47.794;19.126;2022-09-09T12:37:33;32.40;37.90
7700;DHT22;3892;47.794;19.126;2022-09-09T12:40:02;32.30;37.80
7700;DHT22;3892;47.794;19.126;2022-09-09T12:42:30;32.20;37.60
7700;DHT22;3892;47.794;19.126;2022-09-09T12:45:03;32.20;38.50
7700;DHT22;3892;47.794;19.126;2022-09-09T12:47:38;32.20;38.40
7700;DHT22;3892;47.794;19.126;2022-09-09T12:50:16;32.20;39.20
7700;DHT22;3892;47.794;19.126;2022-09-09T12:52:44;32.30;39.00
7700;DHT22;3892;47.794;19.126;2022-09-09T12:55:18;32.30;38.50
7700;DHT22;3892;47.794;19.126;2022-09-09T12:57:45;32.40;38.60
7700;DHT22;3892;47.794;19.126;2022-09-09T13:00:18;32.50;39.20
7700;DHT22;3892;47.794;19.126;2022-09-09T13:02:51;32.60;39.30
7700;DHT22;3892;47.794;19.126;2022-09-09T13:05:21;32.70;39.70
7700;DHT22;3892;47.794;19.126;2022-09-09T13:07:48;32.80;39.90
7700;DHT22;3892;47.794;19.126;2022-09-09T13:10:21;32.90;41.00
7700;DHT22;3892;47.794;19.126;2022-09-09T13:12:50;32.90;40.20
7700;DHT22;3892;47.794;19.126;2022-09-09T13:15:22;32.90;40.30
7700;DHT22;3892;47.794;19.126;2022-09-09T13:17:52;32.80;40.30
7700;DHT22;3892;47.794;19.126;2022-09-09T13:20:21;32.70;39.50
7700;DHT22;3892;47.794;19.126;2022-09-09T13:22:49;32.60;39.40
7700;DHT22;3892;47.794;19.126;2022-09-09T13:25:23;32.60;40.60
7700;DHT22;3892;47.794;19.126;2022-09-09T13:27:56;32.50;40.50
7700;DHT22;3892;47.794;19.126;2022-09-09T13:30:27;32.50;41.20
7700;DHT22;3892;47.794;19.126;2022-09-09T13:33:18;32.60;41.60
7700;DHT22;3892;47.794;19.126;2022-09-09T13:35:49;32.60;40.80
7700;DHT22;3892;47.794;19.126;2022-09-09T13:38:17;32.60;40.10
7700;DHT22;3892;47.794;19.126;2022-09-09T13:40:57;32.60;41.10
7700;DHT22;3892;47.794;19.126;2022-09-09T13:43:28;32.60;42.00
7700;DHT22;3892;47.794;19.126;2022-09-09T13:45:59;32.60;42.60
7700;DHT22;3892;47.794;19.126;2022-09-09T13:48:27;32.60;44.30
7700;DHT22;3892;47.794;19.126;2022-09-09T13:51:00;32.60;46.10
7700;DHT22;3892;47.794;19.126;2022-09-09T13:53:28;32.60;48.40
7700;DHT22;3892;47.794;19.126;2022-09-09T13:55:56;32.50;41.60
7700;DHT22;3892;47.794;19.126;2022-09-09T13:58:24;32.50;40.20
7700;DHT22;3892;47.794;19.126;2022-09-09T14:00:52;32.50;41.00
7700;DHT22;3892;47.794;19.126;2022-09-09T14:03:20;32.40;40.10
7700;DHT22;3892;47.794;19.126;2022-09-09T14:05:48;32.40;40.80
7700;DHT22;3892;47.794;19.126;2022-09-09T14:08:23;32.40;40.40
7700;DHT22;3892;47.794;19.126;2022-09-09T14:10:50;32.40;40.40
7700;DHT22;3892;47.794;19.126;2022-09-09T14:13:18;32.40;40.30
7700;DHT22;3892;47.794;19.126;2022-09-09T14:15:48;32.40;40.30
7700;DHT22;3892;47.794;19.126;2022-09-09T14:18:15;32.40;40.70
7700;DHT22;3892;47.794;19.126;2022-09-09T14:20:44;32.40;40.30
7700;DHT22;3892;47.794;19.126;2022-09-09T14:23:11;32.40;40.20
7700;DHT22;3892;47.794;19.126;2022-09-09T14:25:42;32.40;40.40
7700;DHT22;3892;47.794;19.126;2022-09-09T14:28:11;32.40;40.80
7700;DHT22;3892;47.794;19.126;2022-09-09T14:30:39;32.30;40.60
7700;DHT22;3892;47.794;19.126;2022-09-09T14:33:07;32.20;40.60
7700;DHT22;3892;47.794;19.126;2022-09-09T14:35:34;32.20;41.10
7700;DHT22;3892;47.794;19.126;2022-09-09T14:38:03;32.20;40.70
7700;DHT22;3892;47.794;19.126;2022-09-09T14:40:30;32.10;40.70
7700;DHT22;3892;47.794;19.126;2022-09-09T14:42:57;32.20;40.80
7700;DHT22;3892;47.794;19.126;2022-09-09T14:45:25;32.30;41.20
7700;DHT22;3892;47.794;19.126;2022-09-09T14:47:52;32.40;40.90
7700;DHT22;3892;47.794;19.126;2022-09-09T14:50:20;32.30;40.00
7700;DHT22;3892;47.794;19.126;2022-09-09T14:52:47;32.30;39.70
7700;DHT22;3892;47.794;19.126;2022-09-09T14:55:15;32.20;40.00
7700;DHT22;3892;47.794;19.126;2022-09-09T14:57:43;32.10;40.70
7700;DHT22;3892;47.794;19.126;2022-09-09T15:00:11;32.10;41.60
7700;DHT22;3892;47.794;19.126;2022-09-09T15:02:39;32.00;42.40
7700;DHT22;3892;47.794;19.126;2022-09-09T15:05:06;31.90;42.60
7700;DHT22;3892;47.794;19.126;2022-09-09T15:07:33;31.90;43.20
7700;DHT22;3892;47.794;19.126;2022-09-09T15:10:02;31.70;43.90
7700;DHT22;3892;47.794;19.126;2022-09-09T15:12:30;31.70;42.20
7700;DHT22;3892;47.794;19.126;2022-09-09T15:14:57;31.60;40.80
7700;DHT22;3892;47.794;19.126;2022-09-09T15:17:24;31.60;40.50
7700;DHT22;3892;47.794;19.126;2022-09-09T15:19:53;31.50;38.70
7700;DHT22;3892;47.794;19.126;2022-09-09T15:22:20;31.40;38.70
7700;DHT22;3892;47.794;19.126;2022-09-09T15:24:47;31.30;39.20
7700;DHT22;3892;47.794;19.126;2022-09-09T15:27:14;31.30;39.60
7700;DHT22;3892;47.794;19.126;2022-09-09T15:29:43;31.30;39.70
7700;DHT22;3892;47.794;19.126;2022-09-09T15:32:10;31.30;39.40
7700;DHT22;3892;47.794;19.126;2022-09-09T15:34:36;31.30;39.20
7700;DHT22;3892;47.794;19.126;2022-09-09T15:37:03;31.30;39.50
7700;DHT22;3892;47.794;19.126;2022-09-09T15:39:31;31.30;39.90
7700;DHT22;3892;47.794;19.126;2022-09-09T15:41:58;31.30;39.90
7700;DHT22;3892;47.794;19.126;2022-09-09T15:44:26;31.20;39.50
7700;DHT22;3892;47.794;19.126;2022-09-09T15:46:54;31.10;39.40
7700;DHT22;3892;47.794;19.126;2022-09-09T15:49:23;31.10;39.20
7700;DHT22;3892;47.794;19.126;2022-09-09T15:51:52;31.00;40.20
7700;DHT22;3892;47.794;19.126;2022-09-09T15:54:22;31.00;41.10
7700;DHT22;3892;47.794;19.126;2022-09-09T15:56:51;30.90;40.10
7700;DHT22;3892;47.794;19.126;2022-09-09T15:59:20;30.80;40.50
7700;DHT22;3892;47.794;19.126;2022-09-09T16:01:47;30.70;40.80
7700;DHT22;3892;47.794;19.126;2022-09-09T16:04:18;30.70;41.80
7700;DHT22;3892;47.794;19.126;2022-09-09T16:06:49;30.60;42.40
7700;DHT22;3892;47.794;19.126;2022-09-09T16:09:17;30.60;42.50
7700;DHT22;3892;47.794;19.126;2022-09-09T16:11:44;30.60;42.70
7700;DHT22;3892;47.794;19.126;2022-09-09T16:14:12;30.50;42.70